| time (UTC) | temp C | wind direction | speed KPH | gust KPH | rain 1hr cm | rain 24hr cm | rain mn cm | humidity % | barometer mb |
| 20260906003918 | 30 | 22 | 9.7 | 11.3 | 0.00 | 0.00 | 0.00 | 70 | |
| 20260906003413 | 30 | 47 | 6.4 | 12.9 | 0.00 | 0.00 | 0.00 | 70 | |
| 20260906002908 | 30 | 43 | 8.0 | 9.7 | 0.00 | 0.00 | 0.00 | 69 | |
| 20260906002408 | 31 | 71 | 8.0 | 11.3 | 0.00 | 0.00 | 0.00 | 69 | |
| 20260906001903 | 31 | 40 | 4.8 | 9.7 | 0.00 | 0.00 | 0.00 | 68 | |
| 20260906001359 | 31 | 41 | 8.0 | 12.9 | 0.00 | 0.00 | 0.00 | 67 | |
| 20260906000900 | 31 | 38 | 6.4 | 12.9 | 0.00 | 0.00 | 0.00 | 66 | |
| 20260906000359 | 31 | 22 | 11.3 | 14.5 | 0.00 | 0.00 | 0.00 | 65 | |
| 20260905235854 | 31 | 16 | 11.3 | 14.5 | 0.00 | 0.00 | 0.00 | 64 | |
| 20260905235349 | 32 | 22 | 14.5 | 16.1 | 0.00 | 0.00 | 0.00 | 63 | |
| 20260905234844 | 32 | 13 | 14.5 | 16.1 | 0.00 | 0.00 | 0.00 | 62 | |
| 20260905234339 | 32 | 6 | 11.3 | 14.5 | 0.00 | 0.00 | 0.00 | 61 | |
| 20260905233834 | 32 | 12 | 11.3 | 14.5 | 0.00 | 0.00 | 0.00 | 59 | |
| 20260905233329 | 32 | 2 | 14.5 | 16.1 | 0.00 | 0.00 | 0.00 | 59 | |
| 20260905232828 | 33 | 2 | 14.5 | 17.7 | 0.00 | 0.00 | 0.00 | 58 | |
| 20260905232325 | 33 | 3 | 17.7 | 20.9 | 0.00 | 0.00 | 0.00 | 57 | |
| 20260905231820 | 33 | 345 | 17.7 | 20.9 | 0.00 | 0.00 | 0.00 | 58 | |
| 20260905231315 | 33 | 345 | 17.7 | 22.5 | 0.00 | 0.00 | 0.00 | 57 | |
| 20260905230811 | 33 | 2 | 19.3 | 25.7 | 0.00 | 0.00 | 0.00 | 56 | |
| 20260905230309 | 33 | 341 | 20.9 | 24.1 | 0.00 | 0.00 | 0.00 | 56 | |
| 20260905225809 | 33 | 2 | 12.9 | 17.7 | 0.00 | 0.00 | 0.00 | 56 | |
| 20260905225306 | 33 | 349 | 20.9 | 24.1 | 0.00 | 0.00 | 0.00 | 55 | |
| 20260905224803 | 33 | 340 | 17.7 | 20.9 | 0.00 | 0.00 | 0.00 | 55 | |
| 20260905224259 | 33 | 1 | 20.9 | 24.1 | 0.00 | 0.00 | 0.00 | 55 | |
| 20260905223755 | 33 | 23 | 20.9 | 24.1 | 0.00 | 0.00 | 0.00 | 56 | |
| 20260905223252 | 34 | 352 | 19.3 | 25.7 | 0.00 | 0.00 | 0.00 | 54 | |
| 20260905222747 | 34 | 11 | 16.1 | 17.7 | 0.00 | 0.00 | 0.00 | 54 | |
| 20260905222246 | 34 | 17 | 14.5 | 17.7 | 0.00 | 0.00 | 0.00 | 55 | |
| 20260905221742 | 34 | 346 | 14.5 | 17.7 | 0.00 | 0.00 | 0.00 | 54 | |
| 20260905221239 | 34 | 7 | 19.3 | 24.1 | 0.00 | 0.00 | 0.00 | 53 | |
| 20260905220734 | 34 | 24 | 17.7 | 22.5 | 0.00 | 0.00 | 0.00 | 53 | |
| 20260905220230 | 34 | 22 | 20.9 | 27.4 | 0.00 | 0.00 | 0.00 | 52 | |
| 20260905215729 | 34 | 22 | 17.7 | 25.7 | 0.00 | 0.00 | 0.00 | 53 | |
| 20260905215225 | 34 | 28 | 19.3 | 24.1 | 0.00 | 0.00 | 0.00 | 53 | |
| 20260905214721 | 34 | 8 | 19.3 | 25.7 | 0.00 | 0.00 | 0.00 | 53 | |
| 20260905214216 | 34 | 329 | 19.3 | 25.7 | 0.00 | 0.00 | 0.00 | 51 | |
| 20260905213712 | 35 | 353 | 19.3 | 25.7 | 0.00 | 0.00 | 0.00 | 48 | |
| 20260905213208 | 35 | 356 | 17.7 | 22.5 | 0.00 | 0.00 | 0.00 | 47 | |
| 20260905212702 | 35 | 353 | 17.7 | 22.5 | 0.00 | 0.00 | 0.00 | 47 | |
| 20260905212201 | 35 | 342 | 8.0 | 17.7 | 0.00 | 0.00 | 0.00 | 48 | |
| 20260905211656 | 35 | 345 | 14.5 | 16.1 | 0.00 | 0.00 | 0.00 | 48 | |
| 20260905211152 | 35 | 347 | 16.1 | 20.9 | 0.00 | 0.00 | 0.00 | 49 | |
| 20260905210648 | 36 | 337 | 22.5 | 24.1 | 0.00 | 0.00 | 0.00 | 45 | |
| 20260905210148 | 36 | 330 | 6.4 | 11.3 | 0.00 | 0.00 | 0.00 | 44 | |
| 20260905205648 | 36 | 354 | 16.1 | 16.1 | 0.00 | 0.00 | 0.00 | 44 | |
| 20260905205147 | 36 | 16 | 9.7 | 14.5 | 0.00 | 0.00 | 0.00 | 45 | |
| 20260905204646 | 36 | 6 | 11.3 | 17.7 | 0.00 | 0.00 | 0.00 | 43 | |
| 20260905204142 | 36 | 351 | 12.9 | 20.9 | 0.00 | 0.00 | 0.00 | 44 | |
| 20260905203636 | 36 | 312 | 11.3 | 16.1 | 0.00 | 0.00 | 0.00 | 44 | |
| 20260905203132 | 36 | 109 | 8.0 | 17.7 | 0.00 | 0.00 | 0.00 | 46 | |
| 20260905202627 | 36 | 356 | 11.3 | 12.9 | 0.00 | 0.00 | 0.00 | 44 | |
| 20260905202122 | 36 | 331 | 16.1 | 20.9 | 0.00 | 0.00 | 0.00 | 43 | |
| 20260905201618 | 36 | 4 | 12.9 | 16.1 | 0.00 | 0.00 | 0.00 | 44 | |
| 20260905201117 | 36 | 342 | 9.7 | 14.5 | 0.00 | 0.00 | 0.00 | 45 | |
| 20260905200613 | 35 | 330 | 9.7 | 17.7 | 0.00 | 0.00 | 0.00 | 46 | |
| 20260905200109 | 35 | 340 | 19.3 | 22.5 | 0.00 | 0.00 | 0.00 | 45 | |
| 20260905195607 | 36 | 324 | 19.3 | 24.1 | 0.00 | 0.00 | 0.00 | 44 | |
| 20260905195103 | 36 | 328 | 17.7 | 17.7 | 0.00 | 0.00 | 0.00 | 44 | |
| 20260905194602 | 36 | 338 | 12.9 | 22.5 | 0.00 | 0.00 | 0.00 | 44 | |
| 20260905194101 | 36 | 156 | 4.8 | 14.5 | 0.00 | 0.00 | 0.00 | 44 | |
| 20260905193556 | 36 | 223 | 8.0 | 12.9 | 0.00 | 0.00 | 0.00 | 43 | |
| 20260905193052 | 36 | 322 | 17.7 | 17.7 | 0.00 | 0.00 | 0.00 | 43 | |
| 20260905192548 | 36 | 145 | 0.0 | 11.3 | 0.00 | 0.00 | 0.00 | 44 | |
| 20260905192044 | 35 | 348 | 8.0 | 20.9 | 0.00 | 0.00 | 0.00 | 46 | |
| 20260905191542 | 35 | 319 | 11.3 | 14.5 | 0.00 | 0.00 | 0.00 | 47 | |
| 20260905191041 | 35 | 333 | 16.1 | 20.9 | 0.00 | 0.00 | 0.00 | 47 | |
| 20260905190540 | 35 | 354 | 11.3 | 14.5 | 0.00 | 0.00 | 0.00 | 46 | |
| 20260905190039 | 35 | 344 | 14.5 | 24.1 | 0.00 | 0.00 | 0.00 | 46 | |
| 20260905185539 | 36 | 343 | 25.7 | 33.8 | 0.00 | 0.00 | 0.00 | 44 | |
| 20260905185038 | 36 | 359 | 6.4 | 12.9 | 0.00 | 0.00 | 0.00 | 44 | |
| 20260905184539 | 35 | 204 | 9.7 | 16.1 | 0.00 | 0.00 | 0.00 | 44 | |
| 20260905184038 | 35 | 16 | 11.3 | 17.7 | 0.00 | 0.00 | 0.00 | 46 | |
| 20260905183537 | 35 | 281 | 8.0 | 11.3 | 0.00 | 0.00 | 0.00 | 45 | |
| 20260905183033 | 35 | 13 | 11.3 | 24.1 | 0.00 | 0.00 | 0.00 | 45 | |
| 20260905182533 | 35 | 7 | 17.7 | 22.5 | 0.00 | 0.00 | 0.00 | 45 | |
| 20260905182033 | 35 | 28 | 14.5 | 17.7 | 0.00 | 0.00 | 0.00 | 47 | |
| 20260905181528 | 35 | 346 | 17.7 | 17.7 | 0.00 | 0.00 | 0.00 | 47 | |
| 20260905181027 | 35 | 82 | 11.3 | 16.1 | 0.00 | 0.00 | 0.00 | 48 | |
| 20260905180527 | 35 | 348 | 14.5 | 16.1 | 0.00 | 0.00 | 0.00 | 46 | |
| 20260905180022 | 35 | 354 | 16.1 | 20.9 | 0.00 | 0.00 | 0.00 | 47 | |
| 20260905175521 | 35 | 13 | 11.3 | 22.5 | 0.00 | 0.00 | 0.00 | 46 | |
| 20260905175017 | 35 | 349 | 16.1 | 20.9 | 0.00 | 0.00 | 0.00 | 47 | |
| 20260905174513 | 35 | 304 | 14.5 | 17.7 | 0.00 | 0.00 | 0.00 | 48 | |
| 20260905174008 | 35 | 32 | 12.9 | 22.5 | 0.00 | 0.00 | 0.00 | 46 | |
| 20260905173504 | 35 | 320 | 9.7 | 12.9 | 0.00 | 0.00 | 0.00 | 48 | |
| 20260905173000 | 35 | 330 | 14.5 | 17.7 | 0.00 | 0.00 | 0.00 | 46 | |
| 20260905172458 | 35 | 305 | 9.7 | 12.9 | 0.00 | 0.00 | 0.00 | 47 | |
| 20260905171954 | 35 | 323 | 9.7 | 12.9 | 0.00 | 0.00 | 0.00 | 48 | |
| 20260905171450 | 35 | 339 | 12.9 | 14.5 | 0.00 | 0.00 | 0.00 | 47 | |
| 20260905170946 | 35 | 42 | 6.4 | 9.7 | 0.00 | 0.00 | 0.00 | 48 | |
| 20260905170442 | 35 | 4 | 11.3 | 12.9 | 0.00 | 0.00 | 0.00 | 50 | |
| 20260905165941 | 35 | 40 | 12.9 | 16.1 | 0.00 | 0.00 | 0.00 | 51 | |
| 20260905165436 | 34 | 40 | 9.7 | 14.5 | 0.00 | 0.00 | 0.00 | 50 | |
| 20260905164932 | 34 | 10 | 12.9 | 17.7 | 0.00 | 0.00 | 0.00 | 50 | |
| 20260905164426 | 35 | 21 | 9.7 | 16.1 | 0.00 | 0.00 | 0.00 | 48 | |
| 20260905163921 | 34 | 49 | 8.0 | 12.9 | 0.00 | 0.00 | 0.00 | 48 | |
| 20260905163418 | 35 | 346 | 8.0 | 14.5 | 0.00 | 0.00 | 0.00 | 49 | |
| 20260905162914 | 35 | 340 | 12.9 | 14.5 | 0.00 | 0.00 | 0.00 | 49 | |
| 20260905162414 | 35 | 305 | 9.7 | 12.9 | 0.00 | 0.00 | 0.00 | 49 | |
| 20260905161908 | 34 | 263 | 3.2 | 11.3 | 0.00 | 0.00 | 0.00 | 50 | |
| 20260905161403 | 34 | 164 | 1.6 | 9.7 | 0.00 | 0.00 | 0.00 | 51 | |
| 20260905160901 | 34 | 6 | 12.9 | 14.5 | 0.00 | 0.00 | 0.00 | 51 | |
| 20260905160354 | 34 | 11 | 11.3 | 17.7 | 0.00 | 0.00 | 0.00 | 51 | |
| 20260905155849 | 34 | 318 | 8.0 | 9.7 | 0.00 | 0.00 | 0.00 | 51 | |
| 20260905155349 | 34 | 25 | 6.4 | 9.7 | 0.00 | 0.00 | 0.00 | 51 | |
| 20260905154848 | 34 | 354 | 6.4 | 6.4 | 0.00 | 0.00 | 0.00 | 50 | |
| 20260905154344 | 34 | 220 | 3.2 | 4.8 | 0.00 | 0.00 | 0.00 | 51 | |
| 20260905153839 | 33 | 179 | 3.2 | 4.8 | 0.00 | 0.00 | 0.00 | 52 | |
| 20260905153336 | 33 | 102 | 4.8 | 4.8 | 0.00 | 0.00 | 0.00 | 54 | |
| 20260905152835 | 33 | 339 | 6.4 | 9.7 | 0.00 | 0.00 | 0.00 | 53 | |
| 20260905152334 | 33 | 154 | 3.2 | 9.7 | 0.00 | 0.00 | 0.00 | 53 | |
| 20260905151829 | 33 | 194 | 4.8 | 6.4 | 0.00 | 0.00 | 0.00 | 53 | |
| 20260905151325 | 33 | 76 | 3.2 | 6.4 | 0.00 | 0.00 | 0.00 | 53 | |
| 20260905150824 | 33 | 127 | 0.0 | 1.6 | 0.00 | 0.00 | 0.00 | 54 | |
| 20260905150319 | 32 | 172 | 3.2 | 6.4 | 0.00 | 0.00 | 0.00 | 55 | |
| 20260905145817 | 33 | 324 | 6.4 | 11.3 | 0.00 | 0.00 | 0.00 | 53 | |
| 20260905145316 | 32 | 194 | 4.8 | 4.8 | 0.00 | 0.00 | 0.00 | 55 | |
| 20260905144815 | 32 | 139 | 3.2 | 11.3 | 0.00 | 0.00 | 0.00 | 56 | |
| 20260905144311 | 32 | 245 | 4.8 | 11.3 | 0.00 | 0.00 | 0.00 | 56 | |
| 20260905143809 | 32 | 324 | 9.7 | 12.9 | 0.00 | 0.00 | 0.00 | 56 | |
| 20260905143304 | 32 | 334 | 8.0 | 11.3 | 0.00 | 0.00 | 0.00 | 57 | |
| 20260905142803 | 32 | 274 | 6.4 | 6.4 | 0.00 | 0.00 | 0.00 | 56 | |
| 20260905142257 | 32 | 256 | 3.2 | 6.4 | 0.00 | 0.00 | 0.00 | 58 | |
| 20260905141754 | 31 | 141 | 1.6 | 4.8 | 0.00 | 0.00 | 0.00 | 59 | |
| 20260905141249 | 31 | 200 | 4.8 | 9.7 | 0.00 | 0.00 | 0.00 | 58 | |
| 20260905140744 | 31 | 210 | 6.4 | 11.3 | 0.00 | 0.00 | 0.00 | 58 | |
| 20260905140239 | 31 | 149 | 1.6 | 4.8 | 0.00 | 0.00 | 0.00 | 60 | |
| 20260905135737 | 32 | 137 | 3.2 | 9.7 | 0.00 | 0.00 | 0.00 | 59 | |
| 20260905135234 | 31 | 139 | 3.2 | 4.8 | 0.00 | 0.00 | 0.00 | 59 | |
| 20260905134733 | 31 | 137 | 0.0 | 4.8 | 0.00 | 0.00 | 0.00 | 62 | |
| 20260905134232 | 31 | 228 | 6.4 | 9.7 | 0.00 | 0.00 | 0.00 | 59 | |
| 20260905133727 | 31 | 169 | 3.2 | 4.8 | 0.00 | 0.00 | 0.00 | 58 | |
| 20260905133223 | 31 | 136 | 0.0 | 1.6 | 0.00 | 0.00 | 0.00 | 59 | |
| 20260905132721 | 31 | 154 | 0.0 | 3.2 | 0.00 | 0.00 | 0.00 | 59 | |
| 20260905132217 | 31 | 154 | 0.0 | 3.2 | 0.00 | 0.00 | 0.00 | 59 | |
| 20260905131712 | 31 | 137 | 1.6 | 3.2 | 0.00 | 0.00 | 0.00 | 60 | |
| 20260905131208 | 30 | 135 | 0.0 | 0.0 | 0.00 | 0.00 | 0.00 | 63 | |
| 20260905130707 | 30 | 154 | 0.0 | 1.6 | 0.00 | 0.00 | 0.00 | 63 | |
| 20260905130202 | 30 | 149 | 0.0 | 1.6 | 0.00 | 0.00 | 0.00 | 64 | |
| 20260905125702 | 29 | 150 | 1.6 | 1.6 | 0.00 | 0.00 | 0.00 | 64 | |
| 20260905125157 | 29 | 156 | 1.6 | 1.6 | 0.00 | 0.00 | 0.00 | 64 | |
| 20260905124654 | 30 | 149 | 1.6 | 1.6 | 0.00 | 0.00 | 0.00 | 62 | |
| 20260905124149 | 30 | 135 | 0.0 | 0.0 | 0.00 | 0.00 | 0.00 | 61 | |
| 20260905123644 | 29 | 134 | 0.0 | 0.0 | 0.00 | 0.00 | 0.00 | 63 | |
| 20260905123142 | 28 | 139 | 0.0 | 0.0 | 0.00 | 0.00 | 0.00 | 65 | |
| 20260905122641 | 28 | 146 | 0.0 | 0.0 | 0.00 | 0.00 | 0.00 | 66 | |
| 20260905122136 | 28 | 156 | 0.0 | 0.0 | 0.00 | 0.00 | 0.00 | 66 | |
| 20260905121630 | 27 | 178 | 0.0 | 0.0 | 0.00 | 0.00 | 0.00 | 67 | |
| 20260905121126 | 27 | 149 | 0.0 | 0.0 | 0.00 | 0.00 | 0.00 | 68 | |
| 20260905120625 | 27 | 139 | 0.0 | 0.0 | 0.00 | 0.00 | 0.00 | 70 | |
| 20260905120120 | 27 | 147 | 0.0 | 0.0 | 0.00 | 0.00 | 0.00 | 70 | |
| 20260905115619 | 26 | 143 | 0.0 | 0.0 | 0.00 | 0.00 | 0.00 | 72 | |
| 20260905115114 | 26 | 148 | 0.0 | 1.6 | 0.00 | 0.00 | 0.00 | 72 | |
| 20260905114614 | 26 | 154 | 1.6 | 1.6 | 0.00 | 0.00 | 0.00 | 73 | |
| 20260905114113 | 26 | 157 | 1.6 | 1.6 | 0.00 | 0.00 | 0.00 | 74 | |
| 20260905113608 | 26 | 166 | 1.6 | 3.2 | 0.00 | 0.00 | 0.00 | 75 | |
| 20260905113103 | 26 | 155 | 3.2 | 3.2 | 0.00 | 0.00 | 0.00 | 76 | |
| 20260905112558 | 26 | 173 | 3.2 | 4.8 | 0.00 | 0.00 | 0.00 | 76 | |
| 20260905112054 | 25 | 190 | 3.2 | 3.2 | 0.00 | 0.00 | 0.00 | 76 | |
| 20260905111548 | 25 | 203 | 3.2 | 4.8 | 0.00 | 0.00 | 0.00 | 76 | |
| 20260905111048 | 26 | 185 | 3.2 | 4.8 | 0.00 | 0.00 | 0.00 | 76 | |
| 20260905110547 | 26 | 174 | 3.2 | 4.8 | 0.00 | 0.00 | 0.00 | 76 | |
| 20260905110042 | 25 | 199 | 3.2 | 4.8 | 0.00 | 0.00 | 0.00 | 76 | |
| 20260905105542 | 25 | 204 | 4.8 | 4.8 | 0.00 | 0.00 | 0.00 | 76 | |
| 20260905105041 | 25 | 215 | 4.8 | 4.8 | 0.00 | 0.00 | 0.00 | 76 | |
| 20260905104538 | 26 | 190 | 3.2 | 4.8 | 0.00 | 0.00 | 0.00 | 76 | |
| 20260905104037 | 26 | 221 | 4.8 | 6.4 | 0.00 | 0.00 | 0.00 | 76 | |
| 20260905103532 | 26 | 221 | 4.8 | 4.8 | 0.00 | 0.00 | 0.00 | 76 | |
| 20260905103028 | 26 | 191 | 3.2 | 4.8 | 0.00 | 0.00 | 0.00 | 76 | |
| 20260905102524 | 26 | 179 | 4.8 | 4.8 | 0.00 | 0.00 | 0.00 | 76 | |
| 20260905102020 | 26 | 227 | 6.4 | 6.4 | 0.00 | 0.00 | 0.00 | 75 | |
| 20260905101518 | 26 | 231 | 6.4 | 9.7 | 0.00 | 0.00 | 0.00 | 75 | |
| 20260905101017 | 25 | 205 | 6.4 | 9.7 | 0.00 | 0.00 | 0.00 | 76 | |
| 20260905100514 | 25 | 220 | 6.4 | 9.7 | 0.00 | 0.00 | 0.00 | 76 | |
| 20260905100013 | 26 | 232 | 6.4 | 9.7 | 0.00 | 0.00 | 0.00 | 76 | |
| 20260905095508 | 25 | 224 | 8.0 | 11.3 | 0.00 | 0.00 | 0.00 | 76 | |
| 20260905095003 | 25 | 229 | 6.4 | 9.7 | 0.00 | 0.00 | 0.00 | 76 | |
| 20260905094458 | 25 | 245 | 6.4 | 6.4 | 0.00 | 0.00 | 0.00 | 77 | |
| 20260905093956 | 25 | 233 | 6.4 | 6.4 | 0.00 | 0.00 | 0.00 | 77 | |
| 20260905093452 | 25 | 206 | 6.4 | 9.7 | 0.00 | 0.00 | 0.00 | 77 | |
| 20260905092948 | 25 | 220 | 6.4 | 9.7 | 0.00 | 0.00 | 0.00 | 77 | |
| 20260905092444 | 25 | 234 | 6.4 | 6.4 | 0.00 | 0.00 | 0.00 | 78 | |
| 20260905091939 | 25 | 229 | 6.4 | 9.7 | 0.00 | 0.00 | 0.00 | 78 | |
| 20260905091438 | 25 | 236 | 6.4 | 6.4 | 0.00 | 0.00 | 0.00 | 77 | |
| 20260905090938 | 25 | 235 | 4.8 | 6.4 | 0.00 | 0.00 | 0.00 | 78 | |
| 20260905090433 | 25 | 173 | 0.0 | 0.0 | 0.00 | 0.00 | 0.00 | 79 | |
| 20260905085932 | 25 | 134 | 0.0 | 3.2 | 0.00 | 0.00 | 0.00 | 79 | |
| 20260905085432 | 25 | 142 | 0.0 | 1.6 | 0.00 | 0.00 | 0.00 | 79 | |
| 20260905084928 | 25 | 147 | 1.6 | 3.2 | 0.00 | 0.00 | 0.00 | 79 | |
| 20260905084427 | 25 | 171 | 3.2 | 4.8 | 0.00 | 0.00 | 0.00 | 80 | |
| 20260905083922 | 24 | 253 | 3.2 | 4.8 | 0.00 | 0.00 | 0.00 | 80 | |
| 20260905083418 | 24 | 151 | 1.6 | 3.2 | 0.00 | 0.00 | 0.00 | 80 | |
| 20260905082913 | 25 | 81 | 3.2 | 6.4 | 0.00 | 0.00 | 0.00 | 79 | |
| 20260905082410 | 26 | 143 | 1.6 | 3.2 | 0.00 | 0.00 | 0.00 | 75 | |
| 20260905081909 | 26 | 154 | 3.2 | 4.8 | 0.00 | 0.00 | 0.00 | 74 | |
| 20260905081404 | 26 | 273 | 6.4 | 9.7 | 0.00 | 0.00 | 0.00 | 73 | |
| 20260905080903 | 26 | 220 | 6.4 | 9.7 | 0.00 | 0.00 | 0.00 | 73 | |
| 20260905080358 | 26 | 219 | 6.4 | 9.7 | 0.00 | 0.00 | 0.00 | 72 | |
| 20260905075857 | 26 | 211 | 6.4 | 6.4 | 0.00 | 0.00 | 0.00 | 72 | |
| 20260905075357 | 26 | 183 | 3.2 | 4.8 | 0.00 | 0.00 | 0.00 | 73 | |
| 20260905074856 | 26 | 170 | 4.8 | 4.8 | 0.00 | 0.00 | 0.00 | 73 | |
| 20260905074352 | 26 | 209 | 4.8 | 6.4 | 0.00 | 0.00 | 0.00 | 73 | |
| 20260905073847 | 26 | 203 | 6.4 | 9.7 | 0.00 | 0.00 | 0.00 | 72 | |
| 20260905073343 | 27 | 215 | 4.8 | 9.7 | 0.00 | 0.00 | 0.00 | 71 | |
| 20260905072837 | 27 | 200 | 6.4 | 9.7 | 0.00 | 0.00 | 0.00 | 71 | |
| 20260905072332 | 27 | 199 | 6.4 | 6.4 | 0.00 | 0.00 | 0.00 | 70 | |
| 20260905071829 | 27 | 201 | 6.4 | 6.4 | 0.00 | 0.00 | 0.00 | 71 | |
| 20260905071326 | 26 | 206 | 6.4 | 9.7 | 0.00 | 0.00 | 0.00 | 71 | |
| 20260905070825 | 26 | 218 | 6.4 | 9.7 | 0.00 | 0.00 | 0.00 | 72 | |
| 20260905070322 | 26 | 167 | 8.0 | 12.9 | 0.00 | 0.00 | 0.00 | 72 | |
| 20260905065820 | 26 | 203 | 9.7 | 12.9 | 0.00 | 0.00 | 0.00 | 71 | |
| 20260905065319 | 27 | 208 | 8.0 | 11.3 | 0.00 | 0.00 | 0.00 | 71 | |
| 20260905064814 | 27 | 190 | 8.0 | 11.3 | 0.00 | 0.00 | 0.00 | 70 | |
| 20260905064310 | 27 | 211 | 8.0 | 11.3 | 0.00 | 0.00 | 0.00 | 69 | |
| 20260905063808 | 27 | 199 | 6.4 | 11.3 | 0.00 | 0.00 | 0.00 | 68 | |
| 20260905063305 | 27 | 183 | 9.7 | 12.9 | 0.00 | 0.00 | 0.00 | 68 | |
| 20260905062801 | 27 | 209 | 6.4 | 9.7 | 0.00 | 0.00 | 0.00 | 68 | |
| 20260905062300 | 27 | 180 | 6.4 | 6.4 | 0.00 | 0.00 | 0.00 | 68 | |
| 20260905061755 | 27 | 176 | 4.8 | 6.4 | 0.00 | 0.00 | 0.00 | 68 | |
| 20260905061250 | 27 | 209 | 4.8 | 6.4 | 0.00 | 0.00 | 0.00 | 69 | |
| 20260905060749 | 27 | 188 | 4.8 | 6.4 | 0.00 | 0.00 | 0.00 | 68 | |
| 20260905060247 | 27 | 194 | 4.8 | 6.4 | 0.00 | 0.00 | 0.00 | 68 | |
| 20260905055745 | 27 | 168 | 4.8 | 6.4 | 0.00 | 0.00 | 0.00 | 68 | |
| 20260905055240 | 28 | 157 | 6.4 | 6.4 | 0.00 | 0.00 | 0.00 | 66 | |
| 20260905054735 | 28 | 191 | 4.8 | 4.8 | 0.00 | 0.00 | 0.00 | 64 | |
| 20260905054232 | 28 | 164 | 3.2 | 3.2 | 0.00 | 0.00 | 0.00 | 64 | |
| 20260905053731 | 28 | 161 | 1.6 | 3.2 | 0.00 | 0.00 | 0.00 | 64 | |
| 20260905053227 | 27 | 150 | 0.0 | 0.0 | 0.00 | 0.00 | 0.00 | 66 | |
| 20260905052726 | 27 | 142 | 0.0 | 0.0 | 0.00 | 0.00 | 0.00 | 66 | |
| 20260905052221 | 27 | 141 | 0.0 | 0.0 | 0.00 | 0.00 | 0.00 | 67 | |
| 20260905051721 | 27 | 140 | 0.0 | 0.0 | 0.00 | 0.00 | 0.00 | 67 | |
| 20260905051218 | 28 | 132 | 0.0 | 0.0 | 0.00 | 0.00 | 0.00 | 66 | |
| 20260905050714 | 28 | 132 | 0.0 | 0.0 | 0.00 | 0.00 | 0.00 | 64 | |
| 20260905050211 | 28 | 151 | 1.6 | 1.6 | 0.00 | 0.00 | 0.00 | 63 | |
| 20260905045710 | 28 | 167 | 3.2 | 3.2 | 0.00 | 0.00 | 0.00 | 63 | |
| 20260905045206 | 27 | 163 | 3.2 | 3.2 | 0.00 | 0.00 | 0.00 | 65 | |
| 20260905044701 | 27 | 144 | 1.6 | 3.2 | 0.00 | 0.00 | 0.00 | 67 | |
| 20260905044200 | 28 | 153 | 1.6 | 3.2 | 0.00 | 0.00 | 0.00 | 64 | |
| 20260905043659 | 28 | 168 | 3.2 | 3.2 | 0.00 | 0.00 | 0.00 | 64 | |
| 20260905043154 | 28 | 154 | 3.2 | 3.2 | 0.00 | 0.00 | 0.00 | 65 | |
| 20260905042649 | 28 | 143 | 0.0 | 1.6 | 0.00 | 0.00 | 0.00 | 64 | |
| 20260905042148 | 28 | 148 | 1.6 | 3.2 | 0.00 | 0.00 | 0.00 | 64 | |
| 20260905041644 | 28 | 155 | 1.6 | 3.2 | 0.00 | 0.00 | 0.00 | 64 | |
| 20260905041139 | 28 | 166 | 3.2 | 3.2 | 0.00 | 0.00 | 0.00 | 64 | |
| 20260905040634 | 28 | 147 | 0.0 | 0.0 | 0.00 | 0.00 | 0.00 | 64 | |
| 20260905040133 | 28 | 148 | 0.0 | 0.0 | 0.00 | 0.00 | 0.00 | 63 | |
| 20260905035628 | 28 | 154 | 1.6 | 3.2 | 0.00 | 0.00 | 0.00 | 63 | |
| 20260905035125 | 29 | 198 | 4.8 | 4.8 | 0.00 | 0.00 | 0.00 | 62 | |
| 20260905034621 | 28 | 203 | 4.8 | 4.8 | 0.00 | 0.00 | 0.00 | 62 | |
| 20260905034120 | 29 | 155 | 1.6 | 1.6 | 0.00 | 0.00 | 0.00 | 62 | |
| 20260905033619 | 29 | 190 | 3.2 | 4.8 | 0.00 | 0.00 | 0.00 | 61 | |
| 20260905033115 | 28 | 167 | 3.2 | 4.8 | 0.00 | 0.00 | 0.00 | 62 | |
| 20260905032615 | 29 | 180 | 3.2 | 4.8 | 0.00 | 0.00 | 0.00 | 62 | |
| 20260905032115 | 29 | 167 | 4.8 | 4.8 | 0.00 | 0.00 | 0.00 | 61 | |
| 20260905031611 | 29 | 181 | 3.2 | 4.8 | 0.00 | 0.00 | 0.00 | 61 | |
| 20260905031111 | 29 | 159 | 1.6 | 4.8 | 0.00 | 0.00 | 0.00 | 61 | |
| 20260905030606 | 29 | 180 | 3.2 | 4.8 | 0.00 | 0.00 | 0.00 | 61 | |
| 20260905030101 | 29 | 167 | 1.6 | 3.2 | 0.00 | 0.00 | 0.00 | 61 | |
| 20260905025556 | 29 | 157 | 1.6 | 3.2 | 0.00 | 0.00 | 0.00 | 61 | |
| 20260905025052 | 29 | 166 | 3.2 | 4.8 | 0.00 | 0.00 | 0.00 | 61 | |
| 20260905024548 | 30 | 178 | 3.2 | 3.2 | 0.00 | 0.00 | 0.00 | 61 | |
| 20260905024043 | 29 | 175 | 3.2 | 3.2 | 0.00 | 0.00 | 0.00 | 60 | |
| 20260905023538 | 29 | 161 | 3.2 | 3.2 | 0.00 | 0.00 | 0.00 | 61 | |
| 20260905023032 | 29 | 166 | 3.2 | 4.8 | 0.00 | 0.00 | 0.00 | 61 | |
| 20260905022532 | 29 | 174 | 3.2 | 3.2 | 0.00 | 0.00 | 0.00 | 61 | |
| 20260905022027 | 29 | 153 | 1.6 | 3.2 | 0.00 | 0.00 | 0.00 | 61 | |
| 20260905021527 | 29 | 173 | 3.2 | 3.2 | 0.00 | 0.00 | 0.00 | 61 | |
| 20260905021022 | 29 | 182 | 3.2 | 4.8 | 0.00 | 0.00 | 0.00 | 61 | |
| 20260905020522 | 30 | 181 | 3.2 | 4.8 | 0.00 | 0.00 | 0.00 | 60 | |
| 20260905020017 | 30 | 204 | 3.2 | 4.8 | 0.00 | 0.00 | 0.00 | 59 | |
| 20260905015515 | 30 | 209 | 4.8 | 6.4 | 0.00 | 0.00 | 0.00 | 59 | |
| 20260905015010 | 30 | 185 | 3.2 | 4.8 | 0.00 | 0.00 | 0.00 | 59 | |
| 20260905014505 | 30 | 214 | 4.8 | 6.4 | 0.00 | 0.00 | 0.00 | 58 | |
| 20260905014000 | 30 | 213 | 4.8 | 4.8 | 0.00 | 0.00 | 0.00 | 59 | |
| 20260905013456 | 30 | 159 | 4.8 | 6.4 | 0.00 | 0.00 | 0.00 | 58 | |
| 20260905012951 | 30 | 204 | 6.4 | 6.4 | 0.00 | 0.00 | 0.00 | 57 | |
| 20260905012446 | 31 | 195 | 6.4 | 6.4 | 0.00 | 0.00 | 0.00 | 57 | |
| 20260905011942 | 31 | 193 | 4.8 | 6.4 | 0.00 | 0.00 | 0.00 | 56 | |
| 20260905011438 | 31 | 201 | 6.4 | 9.7 | 0.00 | 0.00 | 0.00 | 55 | |
| 20260905010933 | 31 | 173 | 6.4 | 6.4 | 0.00 | 0.00 | 0.00 | 55 | |
| 20260905010428 | 31 | 178 | 4.8 | 6.4 | 0.00 | 0.00 | 0.00 | 55 | |
| 20260905005924 | 31 | 187 | 6.4 | 6.4 | 0.00 | 0.00 | 0.00 | 55 | |
| 20260905005420 | 31 | 187 | 4.8 | 6.4 | 0.00 | 0.00 | 0.00 | 54 | |
| 20260905004920 | 31 | 198 | 6.4 | 6.4 | 0.00 | 0.00 | 0.00 | 54 | |
| 20260905004415 | 31 | 190 | 4.8 | 6.4 | 0.00 | 0.00 | 0.00 | 54 |